sensor_id;sensor_type;location;lat;lon;timestamp;P1;durP1;ratioP1;P2;durP2;ratioP2
46491;SDS011;32206;51.446;6.792;2022-12-07T00:01:04;12.50;;;10.10;;
46491;SDS011;32206;51.446;6.792;2022-12-07T00:03:31;13.98;;;10.27;;
46491;SDS011;32206;51.446;6.792;2022-12-07T00:05:57;13.00;;;9.25;;
46491;SDS011;32206;51.446;6.792;2022-12-07T00:08:23;14.60;;;10.50;;
46491;SDS011;32206;51.446;6.792;2022-12-07T00:10:49;17.27;;;10.48;;
46491;SDS011;32206;51.446;6.792;2022-12-07T00:13:14;12.95;;;9.65;;
46491;SDS011;32206;51.446;6.792;2022-12-07T00:15:40;12.35;;;9.70;;
46491;SDS011;32206;51.446;6.792;2022-12-07T00:18:06;14.48;;;12.13;;
46491;SDS011;32206;51.446;6.792;2022-12-07T00:20:31;13.18;;;10.10;;
46491;SDS011;32206;51.446;6.792;2022-12-07T00:22:58;12.13;;;10.38;;
46491;SDS011;32206;51.446;6.792;2022-12-07T00:25:23;12.75;;;10.75;;
46491;SDS011;32206;51.446;6.792;2022-12-07T00:27:49;13.13;;;9.80;;
46491;SDS011;32206;51.446;6.792;2022-12-07T00:30:15;15.65;;;11.02;;
46491;SDS011;32206;51.446;6.792;2022-12-07T00:32:40;12.32;;;10.95;;
46491;SDS011;32206;51.446;6.792;2022-12-07T00:35:06;14.00;;;10.65;;
46491;SDS011;32206;51.446;6.792;2022-12-07T00:37:32;17.23;;;10.63;;
46491;SDS011;32206;51.446;6.792;2022-12-07T00:39:57;14.73;;;12.35;;
46491;SDS011;32206;51.446;6.792;2022-12-07T00:42:23;13.73;;;10.75;;
46491;SDS011;32206;51.446;6.792;2022-12-07T00:44:48;17.95;;;11.98;;
46491;SDS011;32206;51.446;6.792;2022-12-07T00:47:14;12.30;;;11.02;;
46491;SDS011;32206;51.446;6.792;2022-12-07T00:49:39;12.95;;;10.60;;
46491;SDS011;32206;51.446;6.792;2022-12-07T00:52:05;13.10;;;11.00;;
46491;SDS011;32206;51.446;6.792;2022-12-07T00:54:31;14.60;;;10.98;;
46491;SDS011;32206;51.446;6.792;2022-12-07T00:56:56;14.55;;;11.18;;
46491;SDS011;32206;51.446;6.792;2022-12-07T00:59:22;15.40;;;11.73;;
46491;SDS011;32206;51.446;6.792;2022-12-07T01:01:47;15.63;;;12.15;;
46491;SDS011;32206;51.446;6.792;2022-12-07T01:04:13;13.15;;;11.60;;
46491;SDS011;32206;51.446;6.792;2022-12-07T01:06:38;15.48;;;11.27;;
46491;SDS011;32206;51.446;6.792;2022-12-07T01:09:04;14.88;;;11.52;;
46491;SDS011;32206;51.446;6.792;2022-12-07T01:11:31;17.00;;;11.52;;
46491;SDS011;32206;51.446;6.792;2022-12-07T01:13:57;15.90;;;10.77;;
46491;SDS011;32206;51.446;6.792;2022-12-07T01:16:25;18.13;;;12.23;;
46491;SDS011;32206;51.446;6.792;2022-12-07T01:18:53;13.57;;;11.45;;
46491;SDS011;32206;51.446;6.792;2022-12-07T01:21:23;12.57;;;11.27;;
46491;SDS011;32206;51.446;6.792;2022-12-07T01:23:50;13.02;;;11.45;;
46491;SDS011;32206;51.446;6.792;2022-12-07T01:26:17;15.73;;;11.57;;
46491;SDS011;32206;51.446;6.792;2022-12-07T01:28:45;21.20;;;11.60;;
46491;SDS011;32206;51.446;6.792;2022-12-07T01:31:16;13.35;;;11.45;;
46491;SDS011;32206;51.446;6.792;2022-12-07T01:33:44;17.00;;;10.55;;
46491;SDS011;32206;51.446;6.792;2022-12-07T01:36:16;13.07;;;11.32;;
46491;SDS011;32206;51.446;6.792;2022-12-07T01:38:43;15.93;;;11.02;;
46491;SDS011;32206;51.446;6.792;2022-12-07T01:41:10;14.60;;;12.15;;
46491;SDS011;32206;51.446;6.792;2022-12-07T01:44:07;14.95;;;10.40;;
46491;SDS011;32206;51.446;6.792;2022-12-07T01:46:37;13.43;;;11.00;;
46491;SDS011;32206;51.446;6.792;2022-12-07T01:49:03;15.10;;;10.70;;
46491;SDS011;32206;51.446;6.792;2022-12-07T01:51:31;14.90;;;11.23;;
46491;SDS011;32206;51.446;6.792;2022-12-07T01:53:57;16.67;;;12.00;;
46491;SDS011;32206;51.446;6.792;2022-12-07T01:56:24;13.48;;;10.82;;
46491;SDS011;32206;51.446;6.792;2022-12-07T01:58:52;15.30;;;11.63;;
46491;SDS011;32206;51.446;6.792;2022-12-07T02:01:19;12.35;;;11.10;;
46491;SDS011;32206;51.446;6.792;2022-12-07T02:03:45;14.90;;;11.00;;
46491;SDS011;32206;51.446;6.792;2022-12-07T02:06:12;14.73;;;10.75;;
46491;SDS011;32206;51.446;6.792;2022-12-07T02:08:41;15.65;;;10.93;;
46491;SDS011;32206;51.446;6.792;2022-12-07T02:11:08;14.60;;;10.90;;
46491;SDS011;32206;51.446;6.792;2022-12-07T02:13:35;13.23;;;10.52;;
46491;SDS011;32206;51.446;6.792;2022-12-07T02:16:18;14.48;;;11.52;;
46491;SDS011;32206;51.446;6.792;2022-12-07T02:24:31;12.43;;;10.00;;
46491;SDS011;32206;51.446;6.792;2022-12-07T02:30:28;11.98;;;9.90;;
46491;SDS011;32206;51.446;6.792;2022-12-07T02:35:09;11.98;;;10.73;;
46491;SDS011;32206;51.446;6.792;2022-12-07T02:38:00;18.23;;;10.38;;
46491;SDS011;32206;51.446;6.792;2022-12-07T02:40:38;16.13;;;10.85;;
46491;SDS011;32206;51.446;6.792;2022-12-07T02:43:16;13.32;;;10.45;;
46491;SDS011;32206;51.446;6.792;2022-12-07T02:45:46;16.23;;;10.95;;
46491;SDS011;32206;51.446;6.792;2022-12-07T02:48:16;12.10;;;10.63;;
46491;SDS011;32206;51.446;6.792;2022-12-07T02:50:50;17.77;;;11.30;;
46491;SDS011;32206;51.446;6.792;2022-12-07T02:56:03;14.32;;;11.73;;
46491;SDS011;32206;51.446;6.792;2022-12-07T02:58:41;11.93;;;10.63;;
46491;SDS011;32206;51.446;6.792;2022-12-07T03:03:47;12.07;;;10.48;;
46491;SDS011;32206;51.446;6.792;2022-12-07T03:06:28;14.80;;;11.05;;
46491;SDS011;32206;51.446;6.792;2022-12-07T03:09:08;12.32;;;10.93;;
46491;SDS011;32206;51.446;6.792;2022-12-07T03:11:45;19.27;;;10.68;;
46491;SDS011;32206;51.446;6.792;2022-12-07T03:14:18;16.20;;;10.93;;
46491;SDS011;32206;51.446;6.792;2022-12-07T03:16:49;14.00;;;9.95;;
46491;SDS011;32206;51.446;6.792;2022-12-07T03:19:21;15.02;;;11.35;;
46491;SDS011;32206;51.446;6.792;2022-12-07T03:21:50;14.70;;;11.38;;
46491;SDS011;32206;51.446;6.792;2022-12-07T03:24:24;14.45;;;9.95;;
46491;SDS011;32206;51.446;6.792;2022-12-07T03:30:02;13.32;;;10.65;;
46491;SDS011;32206;51.446;6.792;2022-12-07T03:35:04;15.15;;;10.90;;
46491;SDS011;32206;51.446;6.792;2022-12-07T03:37:51;17.20;;;10.93;;
46491;SDS011;32206;51.446;6.792;2022-12-07T03:40:40;13.82;;;11.02;;
46491;SDS011;32206;51.446;6.792;2022-12-07T03:43:15;14.48;;;10.40;;
46491;SDS011;32206;51.446;6.792;2022-12-07T03:45:44;14.25;;;10.27;;
46491;SDS011;32206;51.446;6.792;2022-12-07T03:51:37;13.35;;;10.30;;
46491;SDS011;32206;51.446;6.792;2022-12-07T03:54:41;17.95;;;10.70;;
46491;SDS011;32206;51.446;6.792;2022-12-07T03:57:13;15.15;;;10.43;;
46491;SDS011;32206;51.446;6.792;2022-12-07T03:59:39;18.35;;;11.57;;
46491;SDS011;32206;51.446;6.792;2022-12-07T04:02:06;16.00;;;11.00;;
46491;SDS011;32206;51.446;6.792;2022-12-07T04:04:33;14.05;;;11.00;;
46491;SDS011;32206;51.446;6.792;2022-12-07T04:06:59;21.38;;;11.02;;
46491;SDS011;32206;51.446;6.792;2022-12-07T04:09:25;15.95;;;11.70;;
46491;SDS011;32206;51.446;6.792;2022-12-07T04:11:50;14.05;;;11.45;;
46491;SDS011;32206;51.446;6.792;2022-12-07T04:14:16;16.15;;;11.38;;
46491;SDS011;32206;51.446;6.792;2022-12-07T04:16:57;17.27;;;12.23;;
46491;SDS011;32206;51.446;6.792;2022-12-07T04:19:27;16.38;;;11.45;;
46491;SDS011;32206;51.446;6.792;2022-12-07T04:21:55;13.65;;;10.43;;
46491;SDS011;32206;51.446;6.792;2022-12-07T04:24:21;19.02;;;11.02;;
46491;SDS011;32206;51.446;6.792;2022-12-07T04:26:47;14.95;;;10.32;;
46491;SDS011;32206;51.446;6.792;2022-12-07T04:29:13;17.42;;;10.10;;
46491;SDS011;32206;51.446;6.792;2022-12-07T04:31:40;20.75;;;11.30;;
46491;SDS011;32206;51.446;6.792;2022-12-07T04:34:06;13.27;;;10.45;;
46491;SDS011;32206;51.446;6.792;2022-12-07T04:36:32;12.75;;;10.18;;
46491;SDS011;32206;51.446;6.792;2022-12-07T04:38:58;14.13;;;10.43;;
46491;SDS011;32206;51.446;6.792;2022-12-07T04:41:24;14.90;;;10.30;;
46491;SDS011;32206;51.446;6.792;2022-12-07T04:43:56;13.05;;;11.68;;
46491;SDS011;32206;51.446;6.792;2022-12-07T04:46:24;19.08;;;10.85;;
46491;SDS011;32206;51.446;6.792;2022-12-07T04:48:50;16.42;;;10.07;;
46491;SDS011;32206;51.446;6.792;2022-12-07T04:51:18;15.40;;;10.20;;
46491;SDS011;32206;51.446;6.792;2022-12-07T04:53:49;26.65;;;11.77;;
46491;SDS011;32206;51.446;6.792;2022-12-07T04:56:15;17.52;;;11.32;;
46491;SDS011;32206;51.446;6.792;2022-12-07T04:58:42;13.30;;;10.63;;
46491;SDS011;32206;51.446;6.792;2022-12-07T05:01:09;15.73;;;10.75;;
46491;SDS011;32206;51.446;6.792;2022-12-07T05:03:35;13.40;;;10.82;;
46491;SDS011;32206;51.446;6.792;2022-12-07T05:06:01;16.55;;;10.63;;
46491;SDS011;32206;51.446;6.792;2022-12-07T05:08:27;16.55;;;10.27;;
46491;SDS011;32206;51.446;6.792;2022-12-07T05:10:52;16.92;;;10.30;;
46491;SDS011;32206;51.446;6.792;2022-12-07T05:13:18;13.27;;;8.65;;
46491;SDS011;32206;51.446;6.792;2022-12-07T05:15:43;10.88;;;8.68;;
46491;SDS011;32206;51.446;6.792;2022-12-07T05:18:09;14.65;;;9.85;;
46491;SDS011;32206;51.446;6.792;2022-12-07T05:20:37;20.75;;;8.88;;
46491;SDS011;32206;51.446;6.792;2022-12-07T05:23:03;17.30;;;9.65;;
46491;SDS011;32206;51.446;6.792;2022-12-07T05:25:29;11.40;;;8.80;;
46491;SDS011;32206;51.446;6.792;2022-12-07T05:27:55;10.63;;;8.98;;
46491;SDS011;32206;51.446;6.792;2022-12-07T05:30:22;12.00;;;8.23;;
46491;SDS011;32206;51.446;6.792;2022-12-07T05:32:48;12.27;;;8.00;;
46491;SDS011;32206;51.446;6.792;2022-12-07T05:35:13;12.18;;;8.38;;
46491;SDS011;32206;51.446;6.792;2022-12-07T05:37:39;14.40;;;9.27;;
46491;SDS011;32206;51.446;6.792;2022-12-07T05:40:05;13.40;;;7.90;;
46491;SDS011;32206;51.446;6.792;2022-12-07T05:42:31;12.73;;;8.52;;
46491;SDS011;32206;51.446;6.792;2022-12-07T05:44:56;11.60;;;7.40;;
46491;SDS011;32206;51.446;6.792;2022-12-07T05:47:22;17.50;;;8.07;;
46491;SDS011;32206;51.446;6.792;2022-12-07T05:49:48;8.88;;;7.45;;
46491;SDS011;32206;51.446;6.792;2022-12-07T05:52:13;18.05;;;9.00;;
46491;SDS011;32206;51.446;6.792;2022-12-07T05:54:39;10.95;;;7.40;;
46491;SDS011;32206;51.446;6.792;2022-12-07T05:57:05;11.73;;;7.63;;
46491;SDS011;32206;51.446;6.792;2022-12-07T05:59:30;15.02;;;8.02;;
46491;SDS011;32206;51.446;6.792;2022-12-07T06:04:30;13.20;;;7.63;;
46491;SDS011;32206;51.446;6.792;2022-12-07T06:06:57;13.13;;;7.70;;
46491;SDS011;32206;51.446;6.792;2022-12-07T06:09:23;11.60;;;8.02;;
46491;SDS011;32206;51.446;6.792;2022-12-07T06:11:50;13.48;;;8.10;;
46491;SDS011;32206;51.446;6.792;2022-12-07T06:14:34;11.70;;;7.50;;
46491;SDS011;32206;51.446;6.792;2022-12-07T06:17:01;11.43;;;7.55;;
46491;SDS011;32206;51.446;6.792;2022-12-07T06:19:26;14.63;;;8.57;;
46491;SDS011;32206;51.446;6.792;2022-12-07T06:21:52;9.07;;;7.47;;
46491;SDS011;32206;51.446;6.792;2022-12-07T06:24:18;14.05;;;7.68;;
46491;SDS011;32206;51.446;6.792;2022-12-07T06:26:44;11.60;;;7.50;;
46491;SDS011;32206;51.446;6.792;2022-12-07T06:29:10;12.95;;;7.35;;
46491;SDS011;32206;51.446;6.792;2022-12-07T06:31:37;14.18;;;6.63;;
46491;SDS011;32206;51.446;6.792;2022-12-07T06:34:03;16.25;;;7.78;;
46491;SDS011;32206;51.446;6.792;2022-12-07T06:36:30;10.15;;;6.28;;
46491;SDS011;32206;51.446;6.792;2022-12-07T06:38:56;11.38;;;7.20;;
46491;SDS011;32206;51.446;6.792;2022-12-07T06:41:22;11.90;;;6.95;;
46491;SDS011;32206;51.446;6.792;2022-12-07T06:43:48;14.10;;;7.60;;
46491;SDS011;32206;51.446;6.792;2022-12-07T06:46:14;9.05;;;7.00;;
46491;SDS011;32206;51.446;6.792;2022-12-07T06:48:40;12.15;;;7.30;;
46491;SDS011;32206;51.446;6.792;2022-12-07T06:51:06;9.25;;;6.68;;
46491;SDS011;32206;51.446;6.792;2022-12-07T06:53:32;15.88;;;7.18;;
46491;SDS011;32206;51.446;6.792;2022-12-07T06:55:58;11.38;;;7.05;;
46491;SDS011;32206;51.446;6.792;2022-12-07T06:58:24;12.23;;;7.15;;
46491;SDS011;32206;51.446;6.792;2022-12-07T07:00:49;11.32;;;7.25;;
46491;SDS011;32206;51.446;6.792;2022-12-07T07:03:15;13.68;;;7.57;;
46491;SDS011;32206;51.446;6.792;2022-12-07T07:05:42;13.70;;;8.07;;
46491;SDS011;32206;51.446;6.792;2022-12-07T07:08:08;13.35;;;8.10;;
46491;SDS011;32206;51.446;6.792;2022-12-07T07:10:34;14.68;;;7.97;;
46491;SDS011;32206;51.446;6.792;2022-12-07T07:13:00;16.17;;;9.07;;
46491;SDS011;32206;51.446;6.792;2022-12-07T07:15:25;12.30;;;7.97;;
46491;SDS011;32206;51.446;6.792;2022-12-07T07:17:51;14.65;;;8.57;;
46491;SDS011;32206;51.446;6.792;2022-12-07T07:20:16;18.38;;;8.63;;
46491;SDS011;32206;51.446;6.792;2022-12-07T07:22:42;13.80;;;9.10;;
46491;SDS011;32206;51.446;6.792;2022-12-07T07:25:08;13.93;;;9.13;;
46491;SDS011;32206;51.446;6.792;2022-12-07T07:27:33;13.82;;;9.07;;
46491;SDS011;32206;51.446;6.792;2022-12-07T07:29:59;16.73;;;8.73;;
46491;SDS011;32206;51.446;6.792;2022-12-07T07:32:25;13.70;;;8.68;;
46491;SDS011;32206;51.446;6.792;2022-12-07T07:34:50;18.13;;;8.98;;
46491;SDS011;32206;51.446;6.792;2022-12-07T07:37:16;10.43;;;8.45;;
46491;SDS011;32206;51.446;6.792;2022-12-07T07:39:41;16.15;;;8.98;;
46491;SDS011;32206;51.446;6.792;2022-12-07T07:42:07;14.70;;;8.65;;
46491;SDS011;32206;51.446;6.792;2022-12-07T07:44:33;20.30;;;9.98;;
46491;SDS011;32206;51.446;6.792;2022-12-07T07:46:59;12.48;;;8.65;;
46491;SDS011;32206;51.446;6.792;2022-12-07T07:49:25;12.88;;;8.32;;
46491;SDS011;32206;51.446;6.792;2022-12-07T07:51:51;15.70;;;8.65;;
46491;SDS011;32206;51.446;6.792;2022-12-07T07:54:16;14.30;;;8.50;;
46491;SDS011;32206;51.446;6.792;2022-12-07T07:56:42;16.38;;;8.13;;
46491;SDS011;32206;51.446;6.792;2022-12-07T07:59:07;11.18;;;7.78;;
46491;SDS011;32206;51.446;6.792;2022-12-07T08:01:33;11.57;;;7.25;;
46491;SDS011;32206;51.446;6.792;2022-12-07T08:03:59;13.13;;;7.70;;
46491;SDS011;32206;51.446;6.792;2022-12-07T08:06:24;12.68;;;8.65;;
46491;SDS011;32206;51.446;6.792;2022-12-07T08:08:50;12.07;;;9.23;;
46491;SDS011;32206;51.446;6.792;2022-12-07T08:11:16;10.23;;;8.23;;
46491;SDS011;32206;51.446;6.792;2022-12-07T08:13:42;17.38;;;8.55;;
46491;SDS011;32206;51.446;6.792;2022-12-07T08:16:11;13.10;;;8.63;;
46491;SDS011;32206;51.446;6.792;2022-12-07T08:18:37;11.35;;;8.27;;
46491;SDS011;32206;51.446;6.792;2022-12-07T08:21:04;14.75;;;8.93;;
46491;SDS011;32206;51.446;6.792;2022-12-07T08:23:31;15.93;;;9.60;;
46491;SDS011;32206;51.446;6.792;2022-12-07T08:26:04;16.17;;;8.75;;
46491;SDS011;32206;51.446;6.792;2022-12-07T08:28:31;19.38;;;8.55;;
46491;SDS011;32206;51.446;6.792;2022-12-07T08:31:01;15.23;;;8.82;;
46491;SDS011;32206;51.446;6.792;2022-12-07T08:33:28;12.02;;;8.02;;
46491;SDS011;32206;51.446;6.792;2022-12-07T08:35:53;12.15;;;8.48;;
46491;SDS011;32206;51.446;6.792;2022-12-07T08:38:19;16.05;;;7.93;;
46491;SDS011;32206;51.446;6.792;2022-12-07T08:40:52;12.73;;;7.68;;
46491;SDS011;32206;51.446;6.792;2022-12-07T08:43:19;14.60;;;8.68;;
46491;SDS011;32206;51.446;6.792;2022-12-07T08:45:45;14.43;;;7.53;;
46491;SDS011;32206;51.446;6.792;2022-12-07T08:48:15;11.25;;;8.23;;
46491;SDS011;32206;51.446;6.792;2022-12-07T08:50:42;11.90;;;8.15;;
46491;SDS011;32206;51.446;6.792;2022-12-07T08:53:09;11.65;;;7.90;;
46491;SDS011;32206;51.446;6.792;2022-12-07T08:55:34;12.40;;;8.45;;
46491;SDS011;32206;51.446;6.792;2022-12-07T08:58:00;17.55;;;9.52;;
46491;SDS011;32206;51.446;6.792;2022-12-07T09:00:27;13.13;;;8.60;;
46491;SDS011;32206;51.446;6.792;2022-12-07T09:02:53;11.18;;;7.78;;
46491;SDS011;32206;51.446;6.792;2022-12-07T09:05:19;15.27;;;7.35;;
46491;SDS011;32206;51.446;6.792;2022-12-07T09:07:46;8.68;;;6.55;;
46491;SDS011;32206;51.446;6.792;2022-12-07T09:10:16;11.43;;;7.57;;
46491;SDS011;32206;51.446;6.792;2022-12-07T09:12:42;9.93;;;8.32;;
46491;SDS011;32206;51.446;6.792;2022-12-07T09:15:07;11.05;;;7.28;;
46491;SDS011;32206;51.446;6.792;2022-12-07T09:17:34;9.27;;;6.80;;
46491;SDS011;32206;51.446;6.792;2022-12-07T09:20:01;18.50;;;9.90;;
46491;SDS011;32206;51.446;6.792;2022-12-07T09:22:30;14.25;;;7.13;;
46491;SDS011;32206;51.446;6.792;2022-12-07T09:24:59;10.77;;;7.15;;
46491;SDS011;32206;51.446;6.792;2022-12-07T09:27:25;11.68;;;7.18;;
46491;SDS011;32206;51.446;6.792;2022-12-07T09:29:51;6.55;;;5.85;;
46491;SDS011;32206;51.446;6.792;2022-12-07T09:32:17;9.20;;;6.65;;
46491;SDS011;32206;51.446;6.792;2022-12-07T09:34:43;8.55;;;6.07;;
46491;SDS011;32206;51.446;6.792;2022-12-07T09:37:09;12.35;;;5.72;;
46491;SDS011;32206;51.446;6.792;2022-12-07T09:39:34;12.18;;;6.15;;
46491;SDS011;32206;51.446;6.792;2022-12-07T09:42:03;8.93;;;5.93;;
46491;SDS011;32206;51.446;6.792;2022-12-07T09:44:30;10.75;;;6.82;;
46491;SDS011;32206;51.446;6.792;2022-12-07T09:46:57;11.77;;;5.43;;
46491;SDS011;32206;51.446;6.792;2022-12-07T09:49:24;10.73;;;5.57;;
46491;SDS011;32206;51.446;6.792;2022-12-07T09:51:59;9.60;;;5.03;;
46491;SDS011;32206;51.446;6.792;2022-12-07T09:54:28;6.97;;;4.97;;
46491;SDS011;32206;51.446;6.792;2022-12-07T09:56:55;9.23;;;5.07;;
46491;SDS011;32206;51.446;6.792;2022-12-07T09:59:21;10.80;;;5.43;;
46491;SDS011;32206;51.446;6.792;2022-12-07T10:01:47;13.98;;;4.40;;
46491;SDS011;32206;51.446;6.792;2022-12-07T10:06:42;14.40;;;4.97;;
46491;SDS011;32206;51.446;6.792;2022-12-07T10:09:14;10.25;;;5.65;;
46491;SDS011;32206;51.446;6.792;2022-12-07T10:14:25;8.07;;;4.80;;
46491;SDS011;32206;51.446;6.792;2022-12-07T10:16:54;8.45;;;4.35;;
46491;SDS011;32206;51.446;6.792;2022-12-07T10:19:30;24.70;;;9.70;;
46491;SDS011;32206;51.446;6.792;2022-12-07T10:22:09;11.38;;;9.63;;
46491;SDS011;32206;51.446;6.792;2022-12-07T10:24:40;6.22;;;5.35;;
46491;SDS011;32206;51.446;6.792;2022-12-07T10:27:17;9.70;;;5.03;;
46491;SDS011;32206;51.446;6.792;2022-12-07T10:29:49;6.25;;;4.85;;
46491;SDS011;32206;51.446;6.792;2022-12-07T10:34:42;8.05;;;4.25;;
46491;SDS011;32206;51.446;6.792;2022-12-07T10:44:44;11.38;;;4.60;;
46491;SDS011;32206;51.446;6.792;2022-12-07T10:49:48;13.48;;;4.55;;
46491;SDS011;32206;51.446;6.792;2022-12-07T10:55:26;9.02;;;4.72;;
46491;SDS011;32206;51.446;6.792;2022-12-07T11:15:07;12.75;;;3.88;;
46491;SDS011;32206;51.446;6.792;2022-12-07T11:23:16;5.47;;;3.08;;
46491;SDS011;32206;51.446;6.792;2022-12-07T11:26:05;7.55;;;2.85;;
46491;SDS011;32206;51.446;6.792;2022-12-07T11:28:55;6.63;;;2.60;;
46491;SDS011;32206;51.446;6.792;2022-12-07T11:34:22;9.15;;;3.40;;
46491;SDS011;32206;51.446;6.792;2022-12-07T11:36:56;10.40;;;6.05;;
46491;SDS011;32206;51.446;6.792;2022-12-07T11:41:52;7.60;;;4.80;;
46491;SDS011;32206;51.446;6.792;2022-12-07T11:44:38;10.77;;;3.17;;
46491;SDS011;32206;51.446;6.792;2022-12-07T11:47:36;9.38;;;3.10;;
46491;SDS011;32206;51.446;6.792;2022-12-07T11:53:05;5.18;;;2.75;;
46491;SDS011;32206;51.446;6.792;2022-12-07T12:03:40;5.35;;;2.22;;
46491;SDS011;32206;51.446;6.792;2022-12-07T12:06:27;4.38;;;2.58;;
46491;SDS011;32206;51.446;6.792;2022-12-07T12:09:00;5.70;;;2.72;;
46491;SDS011;32206;51.446;6.792;2022-12-07T12:25:57;8.48;;;2.10;;
46491;SDS011;32206;51.446;6.792;2022-12-07T12:34:29;7.30;;;2.72;;
46491;SDS011;32206;51.446;6.792;2022-12-07T12:47:52;8.75;;;2.30;;
46491;SDS011;32206;51.446;6.792;2022-12-07T12:50:19;15.63;;;3.38;;
46491;SDS011;32206;51.446;6.792;2022-12-07T12:53:03;5.00;;;2.72;;
46491;SDS011;32206;51.446;6.792;2022-12-07T13:00:43;8.55;;;2.70;;
46491;SDS011;32206;51.446;6.792;2022-12-07T13:03:21;3.00;;;1.90;;
46491;SDS011;32206;51.446;6.792;2022-12-07T13:06:07;28.42;;;15.65;;
46491;SDS011;32206;51.446;6.792;2022-12-07T13:08:42;34.05;;;15.65;;
46491;SDS011;32206;51.446;6.792;2022-12-07T13:11:24;5.50;;;3.75;;
46491;SDS011;32206;51.446;6.792;2022-12-07T13:14:35;17.05;;;10.05;;
46491;SDS011;32206;51.446;6.792;2022-12-07T13:17:06;8.02;;;3.88;;
46491;SDS011;32206;51.446;6.792;2022-12-07T13:22:50;5.70;;;2.20;;
46491;SDS011;32206;51.446;6.792;2022-12-07T13:27:55;6.50;;;2.00;;
46491;SDS011;32206;51.446;6.792;2022-12-07T13:30:40;4.63;;;2.03;;
46491;SDS011;32206;51.446;6.792;2022-12-07T13:33:15;7.60;;;2.33;;
46491;SDS011;32206;51.446;6.792;2022-12-07T13:35:43;7.18;;;2.53;;
46491;SDS011;32206;51.446;6.792;2022-12-07T13:38:23;4.50;;;1.90;;
46491;SDS011;32206;51.446;6.792;2022-12-07T13:46:57;6.35;;;2.40;;
46491;SDS011;32206;51.446;6.792;2022-12-07T13:49:50;5.70;;;2.10;;
46491;SDS011;32206;51.446;6.792;2022-12-07T13:52:25;3.03;;;1.95;;
46491;SDS011;32206;51.446;6.792;2022-12-07T13:54:56;4.60;;;2.10;;
46491;SDS011;32206;51.446;6.792;2022-12-07T13:57:22;8.18;;;1.67;;
46491;SDS011;32206;51.446;6.792;2022-12-07T13:59:50;7.88;;;2.10;;
46491;SDS011;32206;51.446;6.792;2022-12-07T14:02:20;4.03;;;1.50;;
46491;SDS011;32206;51.446;6.792;2022-12-07T14:04:50;3.67;;;1.30;;
46491;SDS011;32206;51.446;6.792;2022-12-07T14:07:21;5.63;;;1.80;;
46491;SDS011;32206;51.446;6.792;2022-12-07T14:09:53;24.90;;;2.55;;
46491;SDS011;32206;51.446;6.792;2022-12-07T14:12:30;3.15;;;1.67;;
46491;SDS011;32206;51.446;6.792;2022-12-07T14:14:57;4.85;;;1.73;;
46491;SDS011;32206;51.446;6.792;2022-12-07T14:17:25;5.00;;;2.40;;
46491;SDS011;32206;51.446;6.792;2022-12-07T14:25:00;6.28;;;2.78;;
46491;SDS011;32206;51.446;6.792;2022-12-07T14:27:38;3.63;;;1.35;;
46491;SDS011;32206;51.446;6.792;2022-12-07T14:30:05;3.97;;;1.10;;
46491;SDS011;32206;51.446;6.792;2022-12-07T14:32:31;6.88;;;3.35;;
46491;SDS011;32206;51.446;6.792;2022-12-07T14:37:44;4.63;;;1.75;;
46491;SDS011;32206;51.446;6.792;2022-12-07T14:40:15;3.55;;;1.60;;
46491;SDS011;32206;51.446;6.792;2022-12-07T14:42:49;19.45;;;6.53;;
46491;SDS011;32206;51.446;6.792;2022-12-07T14:45:19;12.82;;;2.42;;
46491;SDS011;32206;51.446;6.792;2022-12-07T14:47:47;8.88;;;1.75;;
46491;SDS011;32206;51.446;6.792;2022-12-07T14:50:13;5.72;;;1.50;;
46491;SDS011;32206;51.446;6.792;2022-12-07T14:52:41;6.15;;;1.70;;
46491;SDS011;32206;51.446;6.792;2022-12-07T14:55:13;6.03;;;1.67;;
46491;SDS011;32206;51.446;6.792;2022-12-07T14:57:43;7.45;;;1.60;;
46491;SDS011;32206;51.446;6.792;2022-12-07T15:00:09;3.22;;;1.83;;
46491;SDS011;32206;51.446;6.792;2022-12-07T15:02:39;5.47;;;1.70;;
46491;SDS011;32206;51.446;6.792;2022-12-07T15:05:04;11.15;;;2.30;;
46491;SDS011;32206;51.446;6.792;2022-12-07T15:07:30;5.90;;;1.60;;
46491;SDS011;32206;51.446;6.792;2022-12-07T15:09:56;9.38;;;2.22;;
46491;SDS011;32206;51.446;6.792;2022-12-07T15:12:22;4.13;;;1.73;;
46491;SDS011;32206;51.446;6.792;2022-12-07T15:14:49;14.23;;;3.70;;
46491;SDS011;32206;51.446;6.792;2022-12-07T15:17:15;14.95;;;6.65;;
46491;SDS011;32206;51.446;6.792;2022-12-07T15:19:40;10.38;;;3.13;;
46491;SDS011;32206;51.446;6.792;2022-12-07T15:22:07;6.75;;;2.20;;
46491;SDS011;32206;51.446;6.792;2022-12-07T15:24:33;4.53;;;2.03;;
46491;SDS011;32206;51.446;6.792;2022-12-07T15:26:59;8.57;;;3.33;;
46491;SDS011;32206;51.446;6.792;2022-12-07T15:29:24;8.80;;;2.65;;
46491;SDS011;32206;51.446;6.792;2022-12-07T15:31:50;9.70;;;3.75;;
46491;SDS011;32206;51.446;6.792;2022-12-07T15:34:17;5.80;;;3.63;;
46491;SDS011;32206;51.446;6.792;2022-12-07T15:36:42;7.88;;;3.10;;
46491;SDS011;32206;51.446;6.792;2022-12-07T15:39:08;20.88;;;11.82;;
46491;SDS011;32206;51.446;6.792;2022-12-07T15:41:35;33.55;;;20.42;;
46491;SDS011;32206;51.446;6.792;2022-12-07T15:44:00;7.45;;;5.72;;
46491;SDS011;32206;51.446;6.792;2022-12-07T15:46:44;13.10;;;5.05;;
46491;SDS011;32206;51.446;6.792;2022-12-07T15:49:11;52.80;;;17.73;;
46491;SDS011;32206;51.446;6.792;2022-12-07T15:51:39;64.75;;;22.95;;
46491;SDS011;32206;51.446;6.792;2022-12-07T15:54:06;14.60;;;9.63;;
46491;SDS011;32206;51.446;6.792;2022-12-07T15:56:33;11.40;;;8.10;;
46491;SDS011;32206;51.446;6.792;2022-12-07T15:58:59;7.75;;;5.15;;
46491;SDS011;32206;51.446;6.792;2022-12-07T16:01:24;7.30;;;3.90;;
46491;SDS011;32206;51.446;6.792;2022-12-07T16:03:50;5.80;;;4.25;;
46491;SDS011;32206;51.446;6.792;2022-12-07T16:06:16;9.07;;;3.60;;
46491;SDS011;32206;51.446;6.792;2022-12-07T16:08:43;11.85;;;3.50;;
46491;SDS011;32206;51.446;6.792;2022-12-07T16:11:10;6.22;;;3.78;;
46491;SDS011;32206;51.446;6.792;2022-12-07T16:13:35;7.88;;;3.00;;
46491;SDS011;32206;51.446;6.792;2022-12-07T16:16:02;11.25;;;3.15;;
46491;SDS011;32206;51.446;6.792;2022-12-07T16:18:29;4.30;;;3.08;;
46491;SDS011;32206;51.446;6.792;2022-12-07T16:20:55;5.18;;;2.67;;
46491;SDS011;32206;51.446;6.792;2022-12-07T16:23:20;4.75;;;2.75;;
46491;SDS011;32206;51.446;6.792;2022-12-07T16:25:46;6.40;;;3.85;;
46491;SDS011;32206;51.446;6.792;2022-12-07T16:28:11;9.00;;;2.92;;
46491;SDS011;32206;51.446;6.792;2022-12-07T16:30:37;8.35;;;2.72;;
46491;SDS011;32206;51.446;6.792;2022-12-07T16:33:02;6.70;;;3.35;;
46491;SDS011;32206;51.446;6.792;2022-12-07T16:35:28;7.15;;;2.88;;
46491;SDS011;32206;51.446;6.792;2022-12-07T16:37:54;11.52;;;3.80;;
46491;SDS011;32206;51.446;6.792;2022-12-07T16:40:19;10.43;;;3.28;;
46491;SDS011;32206;51.446;6.792;2022-12-07T16:42:45;9.82;;;3.55;;
46491;SDS011;32206;51.446;6.792;2022-12-07T16:45:10;11.95;;;2.60;;
46491;SDS011;32206;51.446;6.792;2022-12-07T16:47:37;4.35;;;2.83;;
46491;SDS011;32206;51.446;6.792;2022-12-07T16:50:03;3.53;;;2.65;;
46491;SDS011;32206;51.446;6.792;2022-12-07T16:52:29;5.10;;;2.00;;
46491;SDS011;32206;51.446;6.792;2022-12-07T16:54:55;6.38;;;2.15;;
46491;SDS011;32206;51.446;6.792;2022-12-07T16:57:20;4.20;;;2.40;;
46491;SDS011;32206;51.446;6.792;2022-12-07T16:59:46;9.07;;;2.45;;
46491;SDS011;32206;51.446;6.792;2022-12-07T17:02:11;4.57;;;2.28;;
46491;SDS011;32206;51.446;6.792;2022-12-07T17:04:37;7.15;;;2.35;;
46491;SDS011;32206;51.446;6.792;2022-12-07T17:07:07;6.90;;;2.13;;